sensor_id;sensor_type;location;lat;lon;timestamp;P1;durP1;ratioP1;P2;durP2;ratioP2
83485;SDS011;73423;45.118;20.726;2023-12-20T00:05:26;22.00;;;11.60;;
83485;SDS011;73423;45.118;20.726;2023-12-20T00:15:27;18.15;;;11.30;;
83485;SDS011;73423;45.118;20.726;2023-12-20T00:25:28;19.20;;;10.65;;
83485;SDS011;73423;45.118;20.726;2023-12-20T00:35:29;18.10;;;9.60;;
83485;SDS011;73423;45.118;20.726;2023-12-20T00:45:30;17.00;;;10.50;;
83485;SDS011;73423;45.118;20.726;2023-12-20T00:55:32;18.50;;;9.45;;
83485;SDS011;73423;45.118;20.726;2023-12-20T01:05:33;15.97;;;9.20;;
83485;SDS011;73423;45.118;20.726;2023-12-20T01:15:34;16.70;;;9.60;;
83485;SDS011;73423;45.118;20.726;2023-12-20T01:25:35;15.07;;;9.25;;
83485;SDS011;73423;45.118;20.726;2023-12-20T01:35:37;14.57;;;8.73;;
83485;SDS011;73423;45.118;20.726;2023-12-20T01:45:38;17.50;;;10.17;;
83485;SDS011;73423;45.118;20.726;2023-12-20T01:55:40;18.10;;;10.52;;
83485;SDS011;73423;45.118;20.726;2023-12-20T02:05:41;20.42;;;11.13;;
83485;SDS011;73423;45.118;20.726;2023-12-20T02:15:42;23.60;;;13.17;;
83485;SDS011;73423;45.118;20.726;2023-12-20T02:25:44;20.20;;;10.97;;
83485;SDS011;73423;45.118;20.726;2023-12-20T02:35:45;21.63;;;11.40;;
83485;SDS011;73423;45.118;20.726;2023-12-20T02:45:47;20.87;;;11.60;;
83485;SDS011;73423;45.118;20.726;2023-12-20T02:55:48;20.20;;;11.37;;
83485;SDS011;73423;45.118;20.726;2023-12-20T03:05:49;20.33;;;11.40;;
83485;SDS011;73423;45.118;20.726;2023-12-20T03:15:50;19.97;;;11.70;;
83485;SDS011;73423;45.118;20.726;2023-12-20T03:25:51;22.73;;;12.40;;
83485;SDS011;73423;45.118;20.726;2023-12-20T03:35:52;24.05;;;12.77;;
83485;SDS011;73423;45.118;20.726;2023-12-20T03:45:53;22.40;;;13.45;;
83485;SDS011;73423;45.118;20.726;2023-12-20T03:55:55;22.30;;;11.03;;
83485;SDS011;73423;45.118;20.726;2023-12-20T04:05:56;19.50;;;10.40;;
83485;SDS011;73423;45.118;20.726;2023-12-20T04:15:57;18.55;;;11.00;;
83485;SDS011;73423;45.118;20.726;2023-12-20T04:25:58;20.57;;;11.53;;
83485;SDS011;73423;45.118;20.726;2023-12-20T04:35:59;16.83;;;10.57;;
83485;SDS011;73423;45.118;20.726;2023-12-20T04:46:01;17.17;;;8.65;;
83485;SDS011;73423;45.118;20.726;2023-12-20T04:56:02;20.13;;;11.40;;
83485;SDS011;73423;45.118;20.726;2023-12-20T05:06:03;25.23;;;13.27;;
83485;SDS011;73423;45.118;20.726;2023-12-20T05:16:05;24.88;;;13.82;;
83485;SDS011;73423;45.118;20.726;2023-12-20T05:26:06;21.42;;;11.85;;
83485;SDS011;73423;45.118;20.726;2023-12-20T05:36:08;25.90;;;14.67;;
83485;SDS011;73423;45.118;20.726;2023-12-20T05:46:12;28.73;;;14.97;;
83485;SDS011;73423;45.118;20.726;2023-12-20T05:56:13;27.45;;;14.82;;
83485;SDS011;73423;45.118;20.726;2023-12-20T06:06:14;33.00;;;15.20;;
83485;SDS011;73423;45.118;20.726;2023-12-20T06:16:16;29.43;;;13.63;;
83485;SDS011;73423;45.118;20.726;2023-12-20T06:26:17;22.20;;;11.60;;
83485;SDS011;73423;45.118;20.726;2023-12-20T06:36:18;26.73;;;14.23;;
83485;SDS011;73423;45.118;20.726;2023-12-20T06:46:20;26.90;;;12.20;;
83485;SDS011;73423;45.118;20.726;2023-12-20T06:56:21;24.45;;;13.52;;
83485;SDS011;73423;45.118;20.726;2023-12-20T07:06:23;28.08;;;14.63;;
83485;SDS011;73423;45.118;20.726;2023-12-20T07:16:26;29.43;;;15.20;;
83485;SDS011;73423;45.118;20.726;2023-12-20T07:26:28;28.03;;;13.60;;
83485;SDS011;73423;45.118;20.726;2023-12-20T07:36:29;26.85;;;14.98;;
83485;SDS011;73423;45.118;20.726;2023-12-20T07:46:30;24.57;;;13.23;;
83485;SDS011;73423;45.118;20.726;2023-12-20T07:56:31;23.23;;;13.03;;
83485;SDS011;73423;45.118;20.726;2023-12-20T08:06:32;24.80;;;16.70;;
83485;SDS011;73423;45.118;20.726;2023-12-20T08:16:34;28.80;;;15.57;;
83485;SDS011;73423;45.118;20.726;2023-12-20T08:26:36;25.50;;;14.70;;
83485;SDS011;73423;45.118;20.726;2023-12-20T08:36:37;22.85;;;14.15;;
83485;SDS011;73423;45.118;20.726;2023-12-20T08:46:38;29.70;;;15.70;;
83485;SDS011;73423;45.118;20.726;2023-12-20T08:56:40;163.90;;;92.10;;
83485;SDS011;73423;45.118;20.726;2023-12-20T09:06:41;41.77;;;27.73;;
83485;SDS011;73423;45.118;20.726;2023-12-20T09:16:43;32.72;;;16.42;;
83485;SDS011;73423;45.118;20.726;2023-12-20T09:26:44;26.77;;;15.17;;
83485;SDS011;73423;45.118;20.726;2023-12-20T09:36:46;68.23;;;25.53;;
83485;SDS011;73423;45.118;20.726;2023-12-20T09:46:49;36.42;;;16.52;;
83485;SDS011;73423;45.118;20.726;2023-12-20T09:56:51;28.13;;;16.80;;
83485;SDS011;73423;45.118;20.726;2023-12-20T10:06:52;37.43;;;20.67;;
83485;SDS011;73423;45.118;20.726;2023-12-20T10:16:54;32.63;;;18.33;;
83485;SDS011;73423;45.118;20.726;2023-12-20T10:27:03;59.05;;;34.13;;
83485;SDS011;73423;45.118;20.726;2023-12-20T10:37:08;62.63;;;34.37;;
83485;SDS011;73423;45.118;20.726;2023-12-20T10:47:11;76.70;;;39.27;;
83485;SDS011;73423;45.118;20.726;2023-12-20T10:57:15;83.03;;;45.13;;
83485;SDS011;73423;45.118;20.726;2023-12-20T11:07:25;78.03;;;41.70;;
83485;SDS011;73423;45.118;20.726;2023-12-20T11:17:33;67.10;;;38.50;;
83485;SDS011;73423;45.118;20.726;2023-12-20T11:27:35;72.38;;;38.88;;
83485;SDS011;73423;45.118;20.726;2023-12-20T11:37:38;78.73;;;46.43;;
83485;SDS011;73423;45.118;20.726;2023-12-20T11:47:45;79.30;;;41.20;;
83485;SDS011;73423;45.118;20.726;2023-12-20T11:57:47;76.30;;;41.25;;
83485;SDS011;73423;45.118;20.726;2023-12-20T12:07:48;82.63;;;42.33;;
83485;SDS011;73423;45.118;20.726;2023-12-20T12:17:53;79.93;;;42.90;;
83485;SDS011;73423;45.118;20.726;2023-12-20T12:28:00;80.33;;;42.57;;
83485;SDS011;73423;45.118;20.726;2023-12-20T12:38:01;78.72;;;41.72;;
83485;SDS011;73423;45.118;20.726;2023-12-20T12:48:04;88.50;;;43.10;;
83485;SDS011;73423;45.118;20.726;2023-12-20T12:58:06;70.83;;;37.83;;
83485;SDS011;73423;45.118;20.726;2023-12-20T13:08:07;65.05;;;36.53;;
83485;SDS011;73423;45.118;20.726;2023-12-20T13:18:10;64.87;;;34.47;;
83485;SDS011;73423;45.118;20.726;2023-12-20T13:28:12;65.73;;;34.87;;
83485;SDS011;73423;45.118;20.726;2023-12-20T13:38:14;65.38;;;33.40;;
83485;SDS011;73423;45.118;20.726;2023-12-20T13:48:15;55.05;;;29.63;;
83485;SDS011;73423;45.118;20.726;2023-12-20T13:58:17;50.73;;;28.87;;
83485;SDS011;73423;45.118;20.726;2023-12-20T14:08:19;57.60;;;30.80;;
83485;SDS011;73423;45.118;20.726;2023-12-20T14:18:21;42.47;;;24.70;;
83485;SDS011;73423;45.118;20.726;2023-12-20T14:28:22;54.17;;;29.73;;
83485;SDS011;73423;45.118;20.726;2023-12-20T14:38:23;67.77;;;32.03;;
83485;SDS011;73423;45.118;20.726;2023-12-20T14:48:24;58.70;;;31.25;;
83485;SDS011;73423;45.118;20.726;2023-12-20T14:58:28;66.43;;;32.60;;
83485;SDS011;73423;45.118;20.726;2023-12-20T15:08:30;66.20;;;33.63;;
83485;SDS011;73423;45.118;20.726;2023-12-20T15:18:31;75.07;;;34.60;;
83485;SDS011;73423;45.118;20.726;2023-12-20T15:28:32;116.40;;;47.28;;
83485;SDS011;73423;45.118;20.726;2023-12-20T15:38:34;69.63;;;35.87;;
83485;SDS011;73423;45.118;20.726;2023-12-20T15:48:36;67.70;;;32.47;;
83485;SDS011;73423;45.118;20.726;2023-12-20T15:58:37;67.55;;;30.65;;
83485;SDS011;73423;45.118;20.726;2023-12-20T16:08:38;74.70;;;32.00;;
83485;SDS011;73423;45.118;20.726;2023-12-20T16:18:41;79.07;;;31.40;;
83485;SDS011;73423;45.118;20.726;2023-12-20T16:28:42;68.07;;;28.88;;
83485;SDS011;73423;45.118;20.726;2023-12-20T16:38:44;82.80;;;33.93;;
83485;SDS011;73423;45.118;20.726;2023-12-20T16:48:45;130.57;;;39.67;;
83485;SDS011;73423;45.118;20.726;2023-12-20T16:58:46;103.32;;;28.58;;
83485;SDS011;73423;45.118;20.726;2023-12-20T17:08:47;77.45;;;27.45;;
83485;SDS011;73423;45.118;20.726;2023-12-20T17:18:50;61.77;;;25.63;;
83485;SDS011;73423;45.118;20.726;2023-12-20T17:28:52;109.57;;;27.33;;
83485;SDS011;73423;45.118;20.726;2023-12-20T17:38:53;119.65;;;29.95;;
83485;SDS011;73423;45.118;20.726;2023-12-20T17:48:54;90.10;;;30.27;;
83485;SDS011;73423;45.118;20.726;2023-12-20T17:58:56;103.43;;;29.07;;
83485;SDS011;73423;45.118;20.726;2023-12-20T18:08:58;80.07;;;24.88;;
83485;SDS011;73423;45.118;20.726;2023-12-20T18:18:59;91.47;;;32.43;;
83485;SDS011;73423;45.118;20.726;2023-12-20T18:29:01;70.57;;;26.47;;
83485;SDS011;73423;45.118;20.726;2023-12-20T18:39:03;73.15;;;25.30;;
83485;SDS011;73423;45.118;20.726;2023-12-20T18:49:05;68.55;;;25.23;;
83485;SDS011;73423;45.118;20.726;2023-12-20T18:59:08;73.83;;;27.43;;
83485;SDS011;73423;45.118;20.726;2023-12-20T19:09:09;77.33;;;28.53;;
83485;SDS011;73423;45.118;20.726;2023-12-20T19:19:10;90.13;;;26.75;;
83485;SDS011;73423;45.118;20.726;2023-12-20T19:29:11;111.13;;;32.10;;
83485;SDS011;73423;45.118;20.726;2023-12-20T19:39:12;148.57;;;32.93;;
83485;SDS011;73423;45.118;20.726;2023-12-20T19:49:14;143.40;;;34.88;;
83485;SDS011;73423;45.118;20.726;2023-12-20T19:59:15;257.40;;;39.10;;
83485;SDS011;73423;45.118;20.726;2023-12-20T20:09:18;148.67;;;33.93;;
83485;SDS011;73423;45.118;20.726;2023-12-20T20:19:20;233.38;;;40.70;;
83485;SDS011;73423;45.118;20.726;2023-12-20T20:29:21;133.35;;;34.63;;
83485;SDS011;73423;45.118;20.726;2023-12-20T20:39:22;161.20;;;48.77;;
83485;SDS011;73423;45.118;20.726;2023-12-20T20:49:24;136.90;;;36.77;;
83485;SDS011;73423;45.118;20.726;2023-12-20T20:59:25;118.03;;;34.97;;
83485;SDS011;73423;45.118;20.726;2023-12-20T21:09:26;123.93;;;42.47;;
83485;SDS011;73423;45.118;20.726;2023-12-20T21:19:29;73.63;;;31.30;;
83485;SDS011;73423;45.118;20.726;2023-12-20T21:29:30;86.85;;;33.10;;
83485;SDS011;73423;45.118;20.726;2023-12-20T21:39:31;90.40;;;33.33;;
83485;SDS011;73423;45.118;20.726;2023-12-20T21:49:33;88.07;;;32.97;;
83485;SDS011;73423;45.118;20.726;2023-12-20T21:59:34;76.88;;;31.02;;
83485;SDS011;73423;45.118;20.726;2023-12-20T22:09:35;73.18;;;27.48;;
83485;SDS011;73423;45.118;20.726;2023-12-20T22:19:37;65.50;;;27.07;;
83485;SDS011;73423;45.118;20.726;2023-12-20T22:29:38;118.17;;;38.87;;
83485;SDS011;73423;45.118;20.726;2023-12-20T22:39:39;70.50;;;30.58;;
83485;SDS011;73423;45.118;20.726;2023-12-20T22:49:40;59.37;;;26.70;;
83485;SDS011;73423;45.118;20.726;2023-12-20T22:59:41;89.07;;;34.03;;
83485;SDS011;73423;45.118;20.726;2023-12-20T23:09:42;80.00;;;32.88;;
83485;SDS011;73423;45.118;20.726;2023-12-20T23:19:44;72.90;;;31.10;;
83485;SDS011;73423;45.118;20.726;2023-12-20T23:29:45;70.37;;;31.03;;
83485;SDS011;73423;45.118;20.726;2023-12-20T23:39:47;54.95;;;25.52;;
83485;SDS011;73423;45.118;20.726;2023-12-20T23:49:48;56.83;;;26.05;;
83485;SDS011;73423;45.118;20.726;2023-12-20T23:59:49;65.87;;;28.13;;
